Time,TemperatureF,DewpointF,PressureIn,WindDirection,WindDirectionDegrees,WindSpeedMPH,WindSpeedGustMPH,Humidity,HourlyPrecipIn,Conditions,Clouds,dailyrainin,SoftwareType,DateUTC
2013-11-18 00:01:00,53.8,46.1,29.83,WSW,255,0.0,0.0,75,0.00,,,0.00,VWS V14.01,2013-11-18 05:01:00,
2013-11-18 00:06:00,52.6,45.6,29.84,WSW,249,3.0,4.0,77,0.00,,,0.00,VWS V14.01,2013-11-18 05:06:00,
2013-11-18 00:11:00,53.1,45.0,29.84,SW,235,2.0,3.0,74,0.00,,,0.00,VWS V14.01,2013-11-18 05:11:00,
2013-11-18 00:16:00,53.5,45.1,29.85,WNW,294,1.0,3.0,73,0.00,,,0.00,VWS V14.01,2013-11-18 05:16:00,
2013-11-18 00:21:00,53.5,45.1,29.85,WNW,285,0.0,0.0,73,0.00,,,0.00,VWS V14.01,2013-11-18 05:21:00,
2013-11-18 00:26:00,53.1,45.0,29.86,WNW,285,0.0,0.0,74,0.00,,,0.00,VWS V14.01,2013-11-18 05:26:00,
2013-11-18 00:31:00,52.5,44.8,29.86,WNW,285,0.0,0.0,75,0.00,,,0.00,VWS V14.01,2013-11-18 05:31:00,
2013-11-18 00:36:00,51.4,44.4,29.86,WNW,285,0.0,0.0,77,0.00,,,0.00,VWS V14.01,2013-11-18 05:36:00,
2013-11-18 00:41:00,50.4,44.5,29.85,WNW,285,0.0,0.0,80,0.00,,,0.00,VWS V14.01,2013-11-18 05:41:00,
2013-11-18 00:46:00,49.3,44.0,29.86,WSW,257,0.0,0.0,82,0.00,,,0.00,VWS V14.01,2013-11-18 05:46:00,
2013-11-18 00:51:00,48.7,44.1,29.85,West,271,0.0,0.0,84,0.00,,,0.00,VWS V14.01,2013-11-18 05:51:00,
2013-11-18 00:56:00,49.6,44.7,29.86,WSW,245,1.0,1.0,83,0.00,,,0.00,VWS V14.01,2013-11-18 05:56:00,
2013-11-18 01:01:00,50.2,44.3,29.86,WSW,250,0.0,0.0,80,0.00,,,0.00,VWS V14.01,2013-11-18 06:01:00,
2013-11-18 01:06:00,50.5,44.2,29.86,WSW,243,1.0,1.0,79,0.00,,,0.00,VWS V14.01,2013-11-18 06:06:00,
2013-11-18 01:11:00,50.6,44.3,29.86,WSW,248,0.0,1.0,79,0.00,,,0.00,VWS V14.01,2013-11-18 06:11:00,
2013-11-18 01:16:00,50.4,44.1,29.86,WSW,243,0.0,0.0,79,0.00,,,0.00,VWS V14.01,2013-11-18 06:16:00,
2013-11-18 01:21:00,49.7,43.8,29.86,WSW,243,0.0,0.0,80,0.00,,,0.00,VWS V14.01,2013-11-18 06:21:00,
2013-11-18 01:26:00,48.9,43.3,29.86,WSW,243,0.0,0.0,81,0.00,,,0.00,VWS V14.01,2013-11-18 06:26:00,
2013-11-18 01:31:00,48.5,43.3,29.87,WSW,243,0.0,0.0,82,0.00,,,0.00,VWS V14.01,2013-11-18 06:31:00,
2013-11-18 01:36:00,48.3,43.1,29.87,SW,225,0.0,0.0,82,0.00,,,0.00,VWS V14.01,2013-11-18 06:36:00,
2013-11-18 01:41:00,48.7,43.5,29.87,WSW,246,0.0,1.0,82,0.00,,,0.00,VWS V14.01,2013-11-18 06:41:00,
2013-11-18 01:46:00,49.2,43.3,29.87,WSW,251,0.0,0.0,80,0.00,,,0.00,VWS V14.01,2013-11-18 06:46:00,
2013-11-18 01:51:00,49.5,43.3,29.87,WSW,243,0.0,2.0,79,0.00,,,0.00,VWS V14.01,2013-11-18 06:51:00,
2013-11-18 01:56:00,49.7,43.5,29.88,SW,229,0.0,3.0,79,0.00,,,0.00,VWS V14.01,2013-11-18 06:56:00,
2013-11-18 02:01:00,50.2,43.3,29.88,SW,229,2.0,3.0,77,0.00,,,0.00,VWS V14.01,2013-11-18 07:01:00,
2013-11-18 02:06:00,50.6,43.3,29.88,West,278,1.0,2.0,76,0.00,,,0.00,VWS V14.01,2013-11-18 07:06:00,
2013-11-18 02:11:00,50.8,43.5,29.88,WSW,248,2.0,2.0,76,0.00,,,0.00,VWS V14.01,2013-11-18 07:11:00,
2013-11-18 02:16:00,50.8,43.2,29.88,WSW,254,1.0,2.0,75,0.00,,,0.00,VWS V14.01,2013-11-18 07:16:00,
2013-11-18 02:21:00,50.6,43.0,29.89,WSW,250,2.0,2.0,75,0.00,,,0.00,VWS V14.01,2013-11-18 07:21:00,
2013-11-18 02:26:00,50.4,43.1,29.89,WSW,248,1.0,2.0,76,0.00,,,0.00,VWS V14.01,2013-11-18 07:26:00,
2013-11-18 02:31:00,50.2,42.9,29.89,WSW,256,2.0,3.0,76,0.00,,,0.00,VWS V14.01,2013-11-18 07:31:00,
2013-11-18 02:36:00,50.4,42.8,29.88,SW,232,3.0,3.0,75,0.00,,,0.00,VWS V14.01,2013-11-18 07:36:00,
2013-11-18 02:41:00,50.4,42.8,29.89,SW,233,0.0,2.0,75,0.00,,,0.00,VWS V14.01,2013-11-18 07:41:00,
2013-11-18 02:46:00,50.0,42.7,29.89,West,266,0.0,1.0,76,0.00,,,0.00,VWS V14.01,2013-11-18 07:46:00,
2013-11-18 02:51:00,49.8,42.5,29.89,West,281,2.0,2.0,76,0.00,,,0.00,VWS V14.01,2013-11-18 07:51:00,
2013-11-18 02:56:00,49.7,42.5,29.89,WNW,291,1.0,1.0,76,0.00,,,0.00,VWS V14.01,2013-11-18 07:56:00,
2013-11-18 03:01:00,49.3,42.4,29.89,WSW,239,4.0,4.0,77,0.00,,,0.00,VWS V14.01,2013-11-18 08:01:00,
2013-11-18 03:06:00,49.4,42.2,29.89,WSW,250,2.0,4.0,76,0.00,,,0.00,VWS V14.01,2013-11-18 08:06:00,
2013-11-18 03:11:00,49.5,42.3,29.89,West,277,3.0,4.0,76,0.00,,,0.00,VWS V14.01,2013-11-18 08:11:00,
2013-11-18 03:16:00,49.7,42.5,29.89,WSW,246,1.0,2.0,76,0.00,,,0.00,VWS V14.01,2013-11-18 08:16:00,
2013-11-18 03:21:00,49.6,42.4,29.89,WSW,242,1.0,2.0,76,0.00,,,0.00,VWS V14.01,2013-11-18 08:21:00,
2013-11-18 03:26:00,49.5,42.3,29.89,WNW,290,1.0,1.0,76,0.00,,,0.00,VWS V14.01,2013-11-18 08:26:00,
2013-11-18 03:31:00,49.3,42.4,29.90,WSW,243,2.0,2.0,77,0.00,,,0.00,VWS V14.01,2013-11-18 08:31:00,
2013-11-18 03:36:00,49.2,42.3,29.90,WSW,256,0.0,2.0,77,0.00,,,0.00,VWS V14.01,2013-11-18 08:36:00,
2013-11-18 03:41:00,49.2,42.3,29.90,West,263,3.0,3.0,77,0.00,,,0.00,VWS V14.01,2013-11-18 08:41:00,
2013-11-18 03:46:00,48.9,42.0,29.90,WSW,249,1.0,3.0,77,0.00,,,0.00,VWS V14.01,2013-11-18 08:46:00,
2013-11-18 03:51:00,48.7,42.2,29.90,WSW,250,1.0,1.0,78,0.00,,,0.00,VWS V14.01,2013-11-18 08:51:00,
2013-11-18 03:56:00,48.4,41.9,29.91,WSW,250,2.0,2.0,78,0.00,,,0.00,VWS V14.01,2013-11-18 08:56:00,
2013-11-18 04:01:00,48.4,41.9,29.92,West,276,2.0,3.0,78,0.00,,,0.00,VWS V14.01,2013-11-18 09:01:00,
2013-11-18 04:06:00,48.3,41.8,29.92,WSW,245,2.0,2.0,78,0.00,,,0.00,VWS V14.01,2013-11-18 09:06:00,
2013-11-18 04:11:00,48.1,41.9,29.92,WSW,240,3.0,3.0,79,0.00,,,0.00,VWS V14.01,2013-11-18 09:11:00,
2013-11-18 04:16:00,48.4,41.9,29.92,SW,226,1.0,3.0,78,0.00,,,0.00,VWS V14.01,2013-11-18 09:16:00,
2013-11-18 04:21:00,48.5,42.0,29.93,West,278,1.0,2.0,78,0.00,,,0.00,VWS V14.01,2013-11-18 09:21:00,
2013-11-18 04:26:00,48.5,42.0,29.93,West,262,1.0,4.0,78,0.00,,,0.00,VWS V14.01,2013-11-18 09:26:00,
2013-11-18 04:31:00,48.5,42.0,29.93,WSW,256,3.0,4.0,78,0.00,,,0.00,VWS V14.01,2013-11-18 09:31:00,
2013-11-18 04:36:00,48.4,42.2,29.93,WSW,238,1.0,2.0,79,0.00,,,0.00,VWS V14.01,2013-11-18 09:36:00,
2013-11-18 04:41:00,48.3,42.1,29.94,WNW,288,2.0,3.0,79,0.00,,,0.00,VWS V14.01,2013-11-18 09:41:00,
2013-11-18 04:46:00,48.3,42.1,29.94,West,264,2.0,2.0,79,0.00,,,0.00,VWS V14.01,2013-11-18 09:46:00,
2013-11-18 04:51:00,48.0,41.8,29.94,West,262,1.0,2.0,79,0.00,,,0.00,VWS V14.01,2013-11-18 09:51:00,
2013-11-18 04:56:00,47.7,41.8,29.94,West,267,2.0,3.0,80,0.00,,,0.00,VWS V14.01,2013-11-18 09:56:00,
2013-11-18 05:01:00,47.5,41.7,29.94,WNW,302,2.0,3.0,80,0.00,,,0.00,VWS V14.01,2013-11-18 10:01:00,
2013-11-18 05:06:00,47.4,41.9,29.95,WNW,283,2.0,2.0,81,0.00,,,0.00,VWS V14.01,2013-11-18 10:06:00,
2013-11-18 05:11:00,47.2,41.7,29.95,WSW,256,1.0,3.0,81,0.00,,,0.00,VWS V14.01,2013-11-18 10:11:00,
2013-11-18 05:16:00,47.1,41.6,29.95,West,265,1.0,2.0,81,0.00,,,0.00,VWS V14.01,2013-11-18 10:16:00,
2013-11-18 05:21:00,46.9,41.4,29.95,West,274,1.0,2.0,81,0.00,,,0.00,VWS V14.01,2013-11-18 10:21:00,
2013-11-18 05:26:00,46.7,41.5,29.95,WNW,285,3.0,3.0,82,0.00,,,0.00,VWS V14.01,2013-11-18 10:26:00,
2013-11-18 05:31:00,46.5,41.3,29.96,West,266,2.0,3.0,82,0.00,,,0.00,VWS V14.01,2013-11-18 10:31:00,
2013-11-18 05:36:00,46.4,41.2,29.96,West,267,2.0,3.0,82,0.00,,,0.00,VWS V14.01,2013-11-18 10:36:00,
2013-11-18 05:41:00,46.3,41.4,29.96,West,276,1.0,2.0,83,0.00,,,0.00,VWS V14.01,2013-11-18 10:41:00,
2013-11-18 05:46:00,46.2,41.3,29.96,NW,304,2.0,2.0,83,0.00,,,0.00,VWS V14.01,2013-11-18 10:46:00,
2013-11-18 05:51:00,46.2,41.3,29.96,WNW,288,3.0,5.0,83,0.00,,,0.00,VWS V14.01,2013-11-18 10:51:00,
2013-11-18 05:56:00,46.1,41.2,29.96,WNW,299,5.0,5.0,83,0.00,,,0.00,VWS V14.01,2013-11-18 10:56:00,
2013-11-18 06:01:00,46.0,41.1,29.97,NW,304,2.0,5.0,83,0.00,,,0.00,VWS V14.01,2013-11-18 11:01:00,
2013-11-18 06:06:00,45.9,41.0,29.96,West,262,3.0,4.0,83,0.00,,,0.00,VWS V14.01,2013-11-18 11:06:00,
2013-11-18 06:11:00,45.9,41.0,29.96,NW,307,4.0,4.0,83,0.00,,,0.00,VWS V14.01,2013-11-18 11:11:00,
2013-11-18 06:16:00,45.7,40.8,29.97,WNW,288,6.0,7.0,83,0.00,,,0.00,VWS V14.01,2013-11-18 11:16:00,
2013-11-18 06:21:00,45.7,40.8,29.96,West,281,2.0,4.0,83,0.00,,,0.00,VWS V14.01,2013-11-18 11:21:00,
2013-11-18 06:26:00,45.6,40.7,29.96,WNW,291,4.0,4.0,83,0.00,,,0.00,VWS V14.01,2013-11-18 11:26:00,
2013-11-18 06:31:00,45.4,40.5,29.97,WNW,288,2.0,5.0,83,0.00,,,0.00,VWS V14.01,2013-11-18 11:31:00,
2013-11-18 06:36:00,45.3,40.8,29.97,WNW,283,3.0,4.0,84,0.00,,,0.00,VWS V14.01,2013-11-18 11:36:00,
2013-11-18 06:41:00,45.3,40.8,29.97,WNW,291,2.0,3.0,84,0.00,,,0.00,VWS V14.01,2013-11-18 11:41:00,
2013-11-18 06:46:00,45.0,40.5,29.97,WSW,250,2.0,5.0,84,0.00,,,0.00,VWS V14.01,2013-11-18 11:46:00,
2013-11-18 06:51:00,44.8,40.3,29.97,SW,231,4.0,4.0,84,0.00,,,0.00,VWS V14.01,2013-11-18 11:51:00,
2013-11-18 06:56:00,44.6,40.4,29.97,West,272,2.0,2.0,85,0.00,,,0.00,VWS V14.01,2013-11-18 11:56:00,
2013-11-18 07:01:00,44.4,40.2,29.97,West,280,1.0,2.0,85,0.00,,,0.00,VWS V14.01,2013-11-18 12:01:00,
2013-11-18 07:06:00,44.1,39.9,29.97,WNW,291,2.0,2.0,85,0.00,,,0.00,VWS V14.01,2013-11-18 12:06:00,
2013-11-18 07:11:00,44.0,40.1,29.98,WNW,284,1.0,2.0,86,0.00,,,0.00,VWS V14.01,2013-11-18 12:11:00,
2013-11-18 07:16:00,43.9,40.0,29.98,WSW,250,2.0,2.0,86,0.00,,,0.00,VWS V14.01,2013-11-18 12:16:00,
2013-11-18 07:21:00,43.7,39.8,29.98,WSW,248,1.0,2.0,86,0.00,,,0.00,VWS V14.01,2013-11-18 12:21:00,
2013-11-18 07:26:00,43.4,39.8,29.98,SW,219,0.0,1.0,87,0.00,,,0.00,VWS V14.01,2013-11-18 12:26:00,
2013-11-18 07:31:00,43.1,39.8,29.98,WSW,257,0.0,1.0,88,0.00,,,0.00,VWS V14.01,2013-11-18 12:31:00,
2013-11-18 07:36:00,42.8,39.5,29.98,WSW,252,0.0,0.0,88,0.00,,,0.00,VWS V14.01,2013-11-18 12:36:00,
2013-11-18 07:41:00,42.9,39.9,29.98,West,264,1.0,1.0,89,0.00,,,0.00,VWS V14.01,2013-11-18 12:41:00,
2013-11-18 07:46:00,43.2,39.9,29.99,West,267,1.0,2.0,88,0.00,,,0.00,VWS V14.01,2013-11-18 12:46:00,
2013-11-18 07:51:00,43.5,40.2,29.99,West,261,2.0,2.0,88,0.00,,,0.00,VWS V14.01,2013-11-18 12:51:00,
2013-11-18 07:56:00,43.8,40.5,29.99,WSW,246,2.0,2.0,88,0.00,,,0.00,VWS V14.01,2013-11-18 12:56:00,
2013-11-18 08:01:00,44.1,40.8,29.99,WSW,245,1.0,2.0,88,0.00,,,0.00,VWS V14.01,2013-11-18 13:01:00,
2013-11-18 08:06:00,44.4,41.1,29.99,West,278,2.0,2.0,88,0.00,,,0.00,VWS V14.01,2013-11-18 13:06:00,
2013-11-18 08:11:00,44.6,41.3,29.99,WNW,288,2.0,2.0,88,0.00,,,0.00,VWS V14.01,2013-11-18 13:11:00,
2013-11-18 08:16:00,44.9,41.3,29.99,WNW,282,1.0,2.0,87,0.00,,,0.00,VWS V14.01,2013-11-18 13:16:00,
2013-11-18 08:21:00,45.1,41.5,29.99,West,276,2.0,2.0,87,0.00,,,0.00,VWS V14.01,2013-11-18 13:21:00,
2013-11-18 08:26:00,45.4,41.5,29.99,WNW,284,2.0,2.0,86,0.00,,,0.00,VWS V14.01,2013-11-18 13:26:00,
2013-11-18 08:30:00,45.6,41.7,29.99,WNW,282,2.0,2.0,86,0.00,,,0.00,VWS V14.01,2013-11-18 13:30:00,
2013-11-18 08:35:00,45.9,41.7,30.00,WNW,287,4.0,5.0,85,0.00,,,0.00,VWS V14.01,2013-11-18 13:35:00,
2013-11-18 08:40:00,46.1,41.5,30.00,WNW,282,2.0,3.0,84,0.00,,,0.00,VWS V14.01,2013-11-18 13:40:00,
2013-11-18 08:45:00,46.4,41.8,30.00,NW,308,2.0,3.0,84,0.00,,,0.00,VWS V14.01,2013-11-18 13:45:00,
2013-11-18 08:50:00,46.7,41.8,30.00,WNW,282,3.0,3.0,83,0.00,,,0.00,VWS V14.01,2013-11-18 13:50:00,
2013-11-18 08:55:00,47.1,41.9,30.00,West,278,4.0,6.0,82,0.00,,,0.00,VWS V14.01,2013-11-18 13:55:00,
2013-11-18 09:00:00,47.4,41.9,30.01,SW,214,6.0,6.0,81,0.00,,,0.00,VWS V14.01,2013-11-18 14:00:00,
2013-11-18 09:05:00,47.7,41.8,30.00,West,260,2.0,5.0,80,0.00,,,0.00,VWS V14.01,2013-11-18 14:05:00,
2013-11-18 09:10:00,47.9,42.0,30.01,West,270,3.0,4.0,80,0.00,,,0.00,VWS V14.01,2013-11-18 14:10:00,
2013-11-18 09:15:00,48.1,40.9,30.01,SE,131,1.0,4.0,76,0.00,,,0.00,VWS V14.01,2013-11-18 14:15:00,
2013-11-18 09:20:00,48.4,41.2,30.01,WNW,283,3.0,4.0,76,0.00,,,0.00,VWS V14.01,2013-11-18 14:20:00,
2013-11-18 09:25:00,48.7,41.5,30.01,West,278,4.0,6.0,76,0.00,,,0.00,VWS V14.01,2013-11-18 14:25:00,
2013-11-18 09:30:00,48.8,40.9,30.01,West,265,3.0,4.0,74,0.00,,,0.00,VWS V14.01,2013-11-18 14:30:00,
2013-11-18 09:35:00,49.0,41.1,30.02,West,277,3.0,6.0,74,0.00,,,0.00,VWS V14.01,2013-11-18 14:35:00,
2013-11-18 09:40:00,49.1,41.5,30.02,SW,222,4.0,5.0,75,0.00,,,0.00,VWS V14.01,2013-11-18 14:40:00,
2013-11-18 09:45:00,49.3,41.4,30.02,WSW,244,7.0,7.0,74,0.00,,,0.00,VWS V14.01,2013-11-18 14:45:00,
2013-11-18 09:50:00,49.5,41.2,30.02,WNW,288,5.0,5.0,73,0.00,,,0.00,VWS V14.01,2013-11-18 14:50:00,
2013-11-18 09:55:00,49.6,41.3,30.02,West,267,5.0,10.0,73,0.00,,,0.00,VWS V14.01,2013-11-18 14:55:00,
2013-11-18 10:00:00,49.7,41.0,30.03,West,269,6.0,7.0,72,0.00,,,0.00,VWS V14.01,2013-11-18 15:00:00,
2013-11-18 10:05:00,49.8,41.2,30.03,WNW,293,7.0,7.0,72,0.00,,,0.00,VWS V14.01,2013-11-18 15:05:00,
2013-11-18 10:10:00,50.1,41.4,30.03,WSW,246,7.0,7.0,72,0.00,,,0.00,VWS V14.01,2013-11-18 15:10:00,
2013-11-18 10:15:00,50.4,40.6,30.03,SSW,211,4.0,8.0,69,0.00,,,0.00,VWS V14.01,2013-11-18 15:15:00,
2013-11-18 10:20:00,50.5,41.1,30.03,West,276,6.0,13.0,70,0.00,,,0.00,VWS V14.01,2013-11-18 15:20:00,
2013-11-18 10:25:00,50.6,41.2,30.03,WSW,255,7.0,7.0,70,0.00,,,0.00,VWS V14.01,2013-11-18 15:25:00,
2013-11-18 10:30:00,50.8,41.4,30.03,WNW,285,5.0,7.0,70,0.00,,,0.00,VWS V14.01,2013-11-18 15:30:00,
2013-11-18 10:35:00,51.0,40.8,30.03,NW,305,10.0,10.0,68,0.00,,,0.00,VWS V14.01,2013-11-18 15:35:00,
2013-11-18 10:40:00,51.2,41.4,30.03,SW,217,12.0,12.0,69,0.00,,,0.00,VWS V14.01,2013-11-18 15:40:00,
2013-11-18 10:45:00,51.3,40.7,30.04,WNW,293,6.0,7.0,67,0.00,,,0.00,VWS V14.01,2013-11-18 15:45:00,
2013-11-18 10:50:00,51.6,41.8,30.04,WNW,298,3.0,6.0,69,0.00,,,0.00,VWS V14.01,2013-11-18 15:50:00,
2013-11-18 10:51:00,51.6,41.8,30.04,SW,221,5.0,7.0,69,0.00,,,0.00,VWS V14.01,2013-11-18 15:51:00,
2013-11-18 10:56:00,51.8,42.0,30.04,NW,323,7.0,13.0,69,0.00,,,0.00,VWS V14.01,2013-11-18 15:56:00,
2013-11-18 11:01:00,51.8,41.6,30.04,WNW,287,9.0,15.0,68,0.00,,,0.00,VWS V14.01,2013-11-18 16:01:00,
2013-11-18 11:06:00,51.7,40.7,30.04,WNW,287,7.0,10.0,66,0.00,,,0.00,VWS V14.01,2013-11-18 16:06:00,
2013-11-18 11:11:00,51.8,41.2,30.04,WNW,290,9.0,9.0,67,0.00,,,0.00,VWS V14.01,2013-11-18 16:11:00,
2013-11-18 11:16:00,51.9,40.5,30.04,WSW,246,6.0,10.0,65,0.00,,,0.00,VWS V14.01,2013-11-18 16:16:00,
2013-11-18 11:21:00,52.0,41.8,30.04,West,271,3.0,8.0,68,0.00,,,0.00,VWS V14.01,2013-11-18 16:21:00,
2013-11-18 11:26:00,52.4,41.8,30.04,WSW,253,7.0,9.0,67,0.00,,,0.00,VWS V14.01,2013-11-18 16:26:00,
2013-11-18 11:31:00,52.7,41.7,30.03,WSW,243,10.0,11.0,66,0.00,,,0.00,VWS V14.01,2013-11-18 16:31:00,
2013-11-18 11:36:00,52.6,40.4,30.03,WNW,284,7.0,12.0,63,0.00,,,0.00,VWS V14.01,2013-11-18 16:36:00,
2013-11-18 11:41:00,52.8,41.8,30.03,WSW,247,11.0,12.0,66,0.00,,,0.00,VWS V14.01,2013-11-18 16:41:00,
2013-11-18 11:46:00,52.8,41.4,30.03,WSW,255,7.0,11.0,65,0.00,,,0.00,VWS V14.01,2013-11-18 16:46:00,
2013-11-18 11:51:00,53.1,42.1,30.03,NW,304,6.0,8.0,66,0.00,,,0.00,VWS V14.01,2013-11-18 16:51:00,
2013-11-18 11:56:00,53.5,41.2,30.03,West,271,10.0,17.0,63,0.00,,,0.00,VWS V14.01,2013-11-18 16:56:00,
2013-11-18 12:01:00,53.4,41.1,30.03,WNW,287,19.0,19.0,63,0.00,,,0.00,VWS V14.01,2013-11-18 17:01:00,
2013-11-18 12:06:00,53.4,41.5,30.03,WSW,253,5.0,8.0,64,0.00,,,0.00,VWS V14.01,2013-11-18 17:06:00,
2013-11-18 12:11:00,53.8,41.5,30.02,WNW,290,9.0,11.0,63,0.00,,,0.00,VWS V14.01,2013-11-18 17:11:00,
2013-11-18 12:16:00,53.9,41.6,30.03,WNW,291,7.0,11.0,63,0.00,,,0.00,VWS V14.01,2013-11-18 17:16:00,
2013-11-18 12:21:00,54.0,42.1,30.03,West,280,4.0,8.0,64,0.00,,,0.00,VWS V14.01,2013-11-18 17:21:00,
2013-11-18 12:26:00,53.9,41.2,30.03,West,274,8.0,10.0,62,0.00,,,0.00,VWS V14.01,2013-11-18 17:26:00,
2013-11-18 12:31:00,54.0,41.3,30.03,NW,308,10.0,10.0,62,0.00,,,0.00,VWS V14.01,2013-11-18 17:31:00,
2013-11-18 12:36:00,53.8,40.3,30.03,WNW,285,13.0,15.0,60,0.00,,,0.00,VWS V14.01,2013-11-18 17:36:00,
2013-11-18 12:41:00,53.8,41.1,30.03,SW,235,6.0,10.0,62,0.00,,,0.00,VWS V14.01,2013-11-18 17:41:00,
2013-11-18 12:46:00,54.0,40.9,30.03,West,270,7.0,13.0,61,0.00,,,0.00,VWS V14.01,2013-11-18 17:46:00,
2013-11-18 12:51:00,54.1,41.0,30.03,WSW,239,9.0,12.0,61,0.00,,,0.00,VWS V14.01,2013-11-18 17:51:00,
2013-11-18 12:56:00,54.2,41.1,30.03,West,276,16.0,16.0,61,0.00,,,0.00,VWS V14.01,2013-11-18 17:56:00,
2013-11-18 13:01:00,54.2,41.9,30.03,WNW,284,11.0,13.0,63,0.00,,,0.00,VWS V14.01,2013-11-18 18:01:00,
2013-11-18 13:06:00,54.3,41.2,30.03,West,264,7.0,10.0,61,0.00,,,0.00,VWS V14.01,2013-11-18 18:06:00,
2013-11-18 13:11:00,54.1,41.0,30.03,NW,323,10.0,12.0,61,0.00,,,0.00,VWS V14.01,2013-11-18 18:11:00,
2013-11-18 13:16:00,54.3,42.0,30.03,West,276,2.0,7.0,63,0.00,,,0.00,VWS V14.01,2013-11-18 18:16:00,
2013-11-18 13:21:00,54.6,41.4,30.03,SW,228,7.0,11.0,61,0.00,,,0.00,VWS V14.01,2013-11-18 18:21:00,
2013-11-18 13:26:00,54.4,40.8,30.03,NW,308,11.0,11.0,60,0.00,,,0.00,VWS V14.01,2013-11-18 18:26:00,
2013-11-18 13:31:00,54.4,41.2,30.03,West,272,6.0,7.0,61,0.00,,,0.00,VWS V14.01,2013-11-18 18:31:00,
2013-11-18 13:36:00,54.6,41.0,30.03,West,262,8.0,10.0,60,0.00,,,0.00,VWS V14.01,2013-11-18 18:36:00,
2013-11-18 13:41:00,54.7,42.0,30.03,WNW,298,4.0,7.0,62,0.00,,,0.00,VWS V14.01,2013-11-18 18:41:00,
2013-11-18 13:46:00,55.0,41.8,30.03,West,266,6.0,8.0,61,0.00,,,0.00,VWS V14.01,2013-11-18 18:46:00,
2013-11-18 13:51:00,54.9,40.9,30.03,WNW,287,6.0,9.0,59,0.00,,,0.00,VWS V14.01,2013-11-18 18:51:00,
2013-11-18 13:56:00,55.0,41.0,30.03,West,273,4.0,7.0,59,0.00,,,0.00,VWS V14.01,2013-11-18 18:56:00,
2013-11-18 14:01:00,55.0,41.0,30.03,WNW,289,9.0,9.0,59,0.00,,,0.00,VWS V14.01,2013-11-18 19:01:00,
2013-11-18 14:06:00,54.8,39.4,30.04,WSW,249,7.0,10.0,56,0.00,,,0.00,VWS V14.01,2013-11-18 19:06:00,
2013-11-18 14:11:00,54.9,40.0,30.04,NW,314,7.0,14.0,57,0.00,,,0.00,VWS V14.01,2013-11-18 19:11:00,
2013-11-18 14:16:00,54.8,40.3,30.03,WNW,283,8.0,10.0,58,0.00,,,0.00,VWS V14.01,2013-11-18 19:16:00,
2013-11-18 14:21:00,55.0,40.5,30.04,WSW,256,9.0,9.0,58,0.00,,,0.00,VWS V14.01,2013-11-18 19:21:00,
2013-11-18 14:26:00,55.4,40.4,30.04,West,269,5.0,7.0,57,0.00,,,0.00,VWS V14.01,2013-11-18 19:26:00,
2013-11-18 14:31:00,55.3,39.0,30.04,WNW,288,7.0,12.0,54,0.00,,,0.00,VWS V14.01,2013-11-18 19:31:00,
2013-11-18 14:36:00,55.2,39.8,30.04,West,268,5.0,6.0,56,0.00,,,0.00,VWS V14.01,2013-11-18 19:36:00,
2013-11-18 14:41:00,55.1,39.7,30.04,WNW,288,3.0,7.0,56,0.00,,,0.00,VWS V14.01,2013-11-18 19:41:00,
2013-11-18 14:46:00,55.1,38.8,30.04,WSW,256,7.0,8.0,54,0.00,,,0.00,VWS V14.01,2013-11-18 19:46:00,
2013-11-18 14:51:00,55.3,38.5,30.04,WNW,290,5.0,8.0,53,0.00,,,0.00,VWS V14.01,2013-11-18 19:51:00,
2013-11-18 14:56:00,55.2,37.9,30.04,West,271,3.0,5.0,52,0.00,,,0.00,VWS V14.01,2013-11-18 19:56:00,
2013-11-18 15:01:00,55.2,35.9,30.04,WNW,293,6.0,12.0,48,0.00,,,0.00,VWS V14.01,2013-11-18 20:01:00,
2013-11-18 15:06:00,55.2,34.8,30.04,West,260,10.0,16.0,46,0.00,,,0.00,VWS V14.01,2013-11-18 20:06:00,
2013-11-18 15:11:00,54.9,35.6,30.04,WSW,255,13.0,13.0,48,0.00,,,0.00,VWS V14.01,2013-11-18 20:11:00,
2013-11-18 15:16:00,54.8,34.4,30.04,WNW,283,8.0,8.0,46,0.00,,,0.00,VWS V14.01,2013-11-18 20:16:00,
2013-11-18 15:21:00,54.7,33.2,30.05,West,269,5.0,8.0,44,0.00,,,0.00,VWS V14.01,2013-11-18 20:21:00,
2013-11-18 15:26:00,54.8,35.0,30.05,WSW,245,8.0,9.0,47,0.00,,,0.00,VWS V14.01,2013-11-18 20:26:00,
2013-11-18 15:31:00,54.9,33.4,30.05,West,263,17.0,17.0,44,0.00,,,0.00,VWS V14.01,2013-11-18 20:31:00,
2013-11-18 15:36:00,54.7,32.7,30.05,WNW,303,10.0,13.0,43,0.00,,,0.00,VWS V14.01,2013-11-18 20:36:00,
2013-11-18 15:41:00,54.6,33.1,30.05,WNW,285,10.0,11.0,44,0.00,,,0.00,VWS V14.01,2013-11-18 20:41:00,
2013-11-18 15:46:00,54.5,33.0,30.05,WNW,295,11.0,11.0,44,0.00,,,0.00,VWS V14.01,2013-11-18 20:46:00,
2013-11-18 15:51:00,54.5,33.0,30.05,WSW,248,10.0,14.0,44,0.00,,,0.00,VWS V14.01,2013-11-18 20:51:00,
2013-11-18 15:56:00,54.2,32.8,30.05,NW,305,6.0,9.0,44,0.00,,,0.00,VWS V14.01,2013-11-18 20:56:00,
2013-11-18 16:01:00,54.1,32.7,30.06,West,274,8.0,9.0,44,0.00,,,0.00,VWS V14.01,2013-11-18 21:01:00,
2013-11-18 16:06:00,54.1,33.8,30.06,WSW,240,3.0,7.0,46,0.00,,,0.00,VWS V14.01,2013-11-18 21:06:00,
2013-11-18 16:11:00,54.1,34.3,30.06,West,269,3.0,7.0,47,0.00,,,0.00,VWS V14.01,2013-11-18 21:11:00,
2013-11-18 16:16:00,53.9,34.2,30.06,WSW,243,8.0,8.0,47,0.00,,,0.00,VWS V14.01,2013-11-18 21:16:00,
2013-11-18 16:21:00,53.7,33.4,30.07,WNW,294,5.0,8.0,46,0.00,,,0.00,VWS V14.01,2013-11-18 21:21:00,
2013-11-18 16:26:00,53.4,33.7,30.07,West,277,7.0,7.0,47,0.00,,,0.00,VWS V14.01,2013-11-18 21:26:00,
2013-11-18 16:30:00,53.2,32.4,30.07,West,270,6.0,6.0,45,0.00,,,0.00,VWS V14.01,2013-11-18 21:30:00,
2013-11-18 16:35:00,53.0,32.8,30.07,NW,304,6.0,10.0,46,0.00,,,0.00,VWS V14.01,2013-11-18 21:35:00,
2013-11-18 16:40:00,52.8,32.1,30.07,West,263,6.0,13.0,45,0.00,,,0.00,VWS V14.01,2013-11-18 21:40:00,
2013-11-18 16:45:00,52.5,32.3,30.08,NW,304,4.0,8.0,46,0.00,,,0.00,VWS V14.01,2013-11-18 21:45:00,
2013-11-18 16:50:00,52.4,32.2,30.08,West,265,3.0,3.0,46,0.00,,,0.00,VWS V14.01,2013-11-18 21:50:00,
2013-11-18 16:55:00,52.2,32.6,30.08,West,273,5.0,7.0,47,0.00,,,0.00,VWS V14.01,2013-11-18 21:55:00,
2013-11-18 17:00:00,52.1,33.0,30.08,WNW,288,4.0,6.0,48,0.00,,,0.00,VWS V14.01,2013-11-18 22:00:00,
2013-11-18 17:06:00,51.9,32.8,30.08,West,266,4.0,7.0,48,0.00,,,0.00,VWS V14.01,2013-11-18 22:06:00,
2013-11-18 17:11:00,51.4,32.4,30.08,WNW,288,5.0,7.0,48,0.00,,,0.00,VWS V14.01,2013-11-18 22:11:00,
2013-11-18 17:16:00,51.0,32.5,30.08,WNW,300,3.0,4.0,49,0.00,,,0.00,VWS V14.01,2013-11-18 22:16:00,
2013-11-18 17:21:00,50.6,32.7,30.09,WNW,287,3.0,6.0,50,0.00,,,0.00,VWS V14.01,2013-11-18 22:21:00,
2013-11-18 17:26:00,50.2,32.3,30.09,WSW,245,6.0,6.0,50,0.00,,,0.00,VWS V14.01,2013-11-18 22:26:00,
2013-11-18 17:31:00,49.9,33.0,30.09,WNW,293,4.0,8.0,52,0.00,,,0.00,VWS V14.01,2013-11-18 22:31:00,
2013-11-18 17:36:00,49.5,33.1,30.09,WSW,243,2.0,4.0,53,0.00,,,0.00,VWS V14.01,2013-11-18 22:36:00,
2013-11-18 17:41:00,49.1,33.2,30.10,WNW,291,3.0,5.0,54,0.00,,,0.00,VWS V14.01,2013-11-18 22:41:00,
2013-11-18 17:46:00,48.8,32.9,30.10,West,274,4.0,6.0,54,0.00,,,0.00,VWS V14.01,2013-11-18 22:46:00,
2013-11-18 17:51:00,48.7,33.3,30.10,West,259,2.0,3.0,55,0.00,,,0.00,VWS V14.01,2013-11-18 22:51:00,
2013-11-18 17:56:00,48.4,33.4,30.10,WNW,284,5.0,5.0,56,0.00,,,0.00,VWS V14.01,2013-11-18 22:56:00,
2013-11-18 18:01:00,48.1,33.6,30.10,West,274,4.0,4.0,57,0.00,,,0.00,VWS V14.01,2013-11-18 23:01:00,
2013-11-18 18:06:00,47.9,33.4,30.10,West,274,6.0,6.0,57,0.00,,,0.00,VWS V14.01,2013-11-18 23:06:00,
2013-11-18 18:11:00,47.8,33.8,30.10,WNW,293,4.0,6.0,58,0.00,,,0.00,VWS V14.01,2013-11-18 23:11:00,
2013-11-18 18:16:00,47.8,33.8,30.11,WNW,285,4.0,8.0,58,0.00,,,0.00,VWS V14.01,2013-11-18 23:16:00,
2013-11-18 18:21:00,47.8,33.8,30.11,WNW,291,3.0,4.0,58,0.00,,,0.00,VWS V14.01,2013-11-18 23:21:00,
2013-11-18 18:26:00,47.7,33.7,30.11,WNW,302,2.0,5.0,58,0.00,,,0.00,VWS V14.01,2013-11-18 23:26:00,
2013-11-18 18:31:00,47.4,33.8,30.11,WNW,283,2.0,3.0,59,0.00,,,0.00,VWS V14.01,2013-11-18 23:31:00,
2013-11-18 18:36:00,47.1,33.9,30.11,WSW,248,3.0,3.0,60,0.00,,,0.00,VWS V14.01,2013-11-18 23:36:00,
2013-11-18 18:40:00,46.6,33.9,30.12,West,269,1.0,1.0,61,0.00,,,0.00,VWS V14.01,2013-11-18 23:40:00,
2013-11-18 18:45:00,46.3,33.6,30.12,WSW,252,1.0,2.0,61,0.00,,,0.00,VWS V14.01,2013-11-18 23:45:00,
2013-11-18 18:50:00,45.9,33.6,30.12,WSW,253,1.0,1.0,62,0.00,,,0.00,VWS V14.01,2013-11-18 23:50:00,
2013-11-18 18:55:00,45.5,33.7,30.12,SW,225,0.0,1.0,63,0.00,,,0.00,VWS V14.01,2013-11-18 23:55:00,
2013-11-18 19:00:00,45.3,33.9,30.12,West,261,2.0,3.0,64,0.00,,,0.00,VWS V14.01,2013-11-19 00:00:00,
2013-11-18 19:06:00,45.0,33.6,30.13,West,259,1.0,1.0,64,0.00,,,0.00,VWS V14.01,2013-11-19 00:06:00,
2013-11-18 19:11:00,44.8,33.8,30.13,WSW,254,0.0,1.0,65,0.00,,,0.00,VWS V14.01,2013-11-19 00:11:00,
2013-11-18 19:16:00,44.6,33.6,30.13,West,263,1.0,1.0,65,0.00,,,0.00,VWS V14.01,2013-11-19 00:16:00,
2013-11-18 19:21:00,44.3,33.7,30.13,West,273,1.0,1.0,66,0.00,,,0.00,VWS V14.01,2013-11-19 00:21:00,
2013-11-18 19:26:00,44.0,33.8,30.13,West,279,1.0,1.0,67,0.00,,,0.00,VWS V14.01,2013-11-19 00:26:00,
2013-11-18 19:31:00,43.8,33.6,30.13,WNW,293,2.0,2.0,67,0.00,,,0.00,VWS V14.01,2013-11-19 00:31:00,
2013-11-18 19:36:00,43.6,33.4,30.13,WNW,285,1.0,1.0,67,0.00,,,0.00,VWS V14.01,2013-11-19 00:36:00,
2013-11-18 19:41:00,43.4,33.6,30.13,WNW,293,1.0,2.0,68,0.00,,,0.00,VWS V14.01,2013-11-19 00:41:00,
2013-11-18 19:46:00,43.3,33.5,30.14,West,276,2.0,2.0,68,0.00,,,0.00,VWS V14.01,2013-11-19 00:46:00,
2013-11-18 19:51:00,43.1,33.3,30.14,West,278,1.0,2.0,68,0.00,,,0.00,VWS V14.01,2013-11-19 00:51:00,
2013-11-18 19:56:00,42.9,33.4,30.14,West,276,0.0,2.0,69,0.00,,,0.00,VWS V14.01,2013-11-19 00:56:00,
2013-11-18 20:01:00,42.7,33.2,30.14,West,270,2.0,2.0,69,0.00,,,0.00,VWS V14.01,2013-11-19 01:01:00,
2013-11-18 20:06:00,42.7,33.2,30.14,West,280,2.0,2.0,69,0.00,,,0.00,VWS V14.01,2013-11-19 01:06:00,
2013-11-18 20:11:00,42.7,32.9,30.14,West,276,2.0,3.0,68,0.00,,,0.00,VWS V14.01,2013-11-19 01:11:00,
2013-11-18 20:16:00,42.8,33.0,30.14,WNW,297,1.0,1.0,68,0.00,,,0.00,VWS V14.01,2013-11-19 01:16:00,
2013-11-18 20:21:00,42.7,32.9,30.15,WNW,297,1.0,2.0,68,0.00,,,0.00,VWS V14.01,2013-11-19 01:21:00,
2013-11-18 20:26:00,42.6,32.8,30.15,West,277,2.0,2.0,68,0.00,,,0.00,VWS V14.01,2013-11-19 01:26:00,
2013-11-18 20:31:00,42.5,32.7,30.15,West,280,1.0,1.0,68,0.00,,,0.00,VWS V14.01,2013-11-19 01:31:00,
2013-11-18 20:36:00,42.4,32.6,30.15,West,263,1.0,1.0,68,0.00,,,0.00,VWS V14.01,2013-11-19 01:36:00,
2013-11-18 20:41:00,42.3,32.5,30.15,WNW,285,2.0,2.0,68,0.00,,,0.00,VWS V14.01,2013-11-19 01:41:00,
2013-11-18 20:44:00,42.2,32.4,30.15,West,276,1.0,1.0,68,0.00,,,0.00,VWS V14.01,2013-11-19 01:44:00,
2013-11-18 20:49:00,41.8,32.0,30.16,WNW,302,0.0,0.0,68,0.00,,,0.00,VWS V14.01,2013-11-19 01:49:00,
2013-11-18 20:54:00,41.6,32.2,30.16,WNW,301,1.0,2.0,69,0.00,,,0.00,VWS V14.01,2013-11-19 01:54:00,
2013-11-18 20:59:00,41.5,32.1,30.16,WNW,289,1.0,1.0,69,0.00,,,0.00,VWS V14.01,2013-11-19 01:59:00,
2013-11-18 21:04:00,41.5,32.1,30.16,West,280,0.0,1.0,69,0.00,,,0.00,VWS V14.01,2013-11-19 02:04:00,
2013-11-18 21:09:00,41.2,31.8,30.16,West,270,0.0,1.0,69,0.00,,,0.00,VWS V14.01,2013-11-19 02:09:00,
2013-11-18 21:14:00,41.1,31.7,30.17,West,279,1.0,1.0,69,0.00,,,0.00,VWS V14.01,2013-11-19 02:14:00,
2013-11-18 21:19:00,41.0,31.6,30.17,WNW,290,0.0,0.0,69,0.00,,,0.00,VWS V14.01,2013-11-19 02:19:00,
2013-11-18 21:24:00,40.7,31.7,30.17,West,273,0.0,0.0,70,0.00,,,0.00,VWS V14.01,2013-11-19 02:24:00,
2013-11-18 21:29:00,40.5,31.5,30.17,West,280,0.0,0.0,70,0.00,,,0.00,VWS V14.01,2013-11-19 02:29:00,
2013-11-18 21:34:00,40.3,31.7,30.17,WNW,284,0.0,0.0,71,0.00,,,0.00,VWS V14.01,2013-11-19 02:34:00,
2013-11-18 21:39:00,40.1,31.5,30.18,WNW,282,0.0,0.0,71,0.00,,,0.00,VWS V14.01,2013-11-19 02:39:00,
2013-11-18 21:44:00,39.8,31.2,30.18,WNW,283,1.0,1.0,71,0.00,,,0.00,VWS V14.01,2013-11-19 02:44:00,
2013-11-18 21:49:00,39.6,31.3,30.18,WNW,283,0.0,0.0,72,0.00,,,0.00,VWS V14.01,2013-11-19 02:49:00,
2013-11-18 21:54:00,39.2,31.0,30.18,WNW,283,0.0,0.0,72,0.00,,,0.00,VWS V14.01,2013-11-19 02:54:00,
2013-11-18 21:59:00,39.1,31.2,30.18,WNW,283,0.0,0.0,73,0.00,,,0.00,VWS V14.01,2013-11-19 02:59:00,
2013-11-18 22:04:00,38.7,30.8,30.18,West,281,0.0,0.0,73,0.00,,,0.00,VWS V14.01,2013-11-19 03:04:00,
2013-11-18 22:09:00,38.7,31.1,30.19,WNW,289,0.0,1.0,74,0.00,,,0.00,VWS V14.01,2013-11-19 03:09:00,
2013-11-18 22:14:00,38.8,30.9,30.19,WNW,294,1.0,2.0,73,0.00,,,0.00,VWS V14.01,2013-11-19 03:14:00,
2013-11-18 22:19:00,39.1,30.9,30.19,WNW,285,2.0,2.0,72,0.00,,,0.00,VWS V14.01,2013-11-19 03:19:00,
2013-11-18 22:24:00,39.4,30.8,30.19,WNW,290,1.0,1.0,71,0.00,,,0.00,VWS V14.01,2013-11-19 03:24:00,
2013-11-18 22:29:00,39.5,30.9,30.19,West,270,0.0,2.0,71,0.00,,,0.00,VWS V14.01,2013-11-19 03:29:00,
2013-11-18 22:34:00,39.4,30.4,30.19,West,281,0.0,3.0,70,0.00,,,0.00,VWS V14.01,2013-11-19 03:34:00,
2013-11-18 22:39:00,39.5,30.2,30.19,WNW,291,2.0,3.0,69,0.00,,,0.00,VWS V14.01,2013-11-19 03:39:00,
2013-11-18 22:43:00,39.6,30.3,30.19,WNW,283,1.0,2.0,69,0.00,,,0.00,VWS V14.01,2013-11-19 03:43:00,
2013-11-18 22:48:00,39.5,30.2,30.19,WNW,301,1.0,1.0,69,0.00,,,0.00,VWS V14.01,2013-11-19 03:48:00,
2013-11-18 22:53:00,39.3,30.0,30.20,WNW,300,2.0,2.0,69,0.00,,,0.00,VWS V14.01,2013-11-19 03:53:00,
2013-11-18 22:58:00,39.1,30.2,30.20,West,273,0.0,1.0,70,0.00,,,0.00,VWS V14.01,2013-11-19 03:58:00,
2013-11-18 23:03:00,39.0,30.1,30.20,West,281,0.0,1.0,70,0.00,,,0.00,VWS V14.01,2013-11-19 04:03:00,
2013-11-18 23:07:00,38.9,30.0,30.20,WNW,283,0.0,0.0,70,0.00,,,0.00,VWS V14.01,2013-11-19 04:07:00,
2013-11-18 23:12:00,38.9,30.0,30.20,WNW,290,2.0,3.0,70,0.00,,,0.00,VWS V14.01,2013-11-19 04:12:00,
2013-11-18 23:17:00,39.0,30.1,30.20,WNW,283,1.0,1.0,70,0.00,,,0.00,VWS V14.01,2013-11-19 04:17:00,
2013-11-18 23:22:00,38.9,30.0,30.20,WNW,282,2.0,3.0,70,0.00,,,0.00,VWS V14.01,2013-11-19 04:22:00,
2013-11-18 23:27:00,38.8,29.5,30.20,WSW,257,0.0,1.0,69,0.00,,,0.00,VWS V14.01,2013-11-19 04:27:00,
2013-11-18 23:32:00,38.6,29.7,30.20,WNW,288,0.0,0.0,70,0.00,,,0.00,VWS V14.01,2013-11-19 04:32:00,
2013-11-18 23:37:00,38.4,29.5,30.21,WNW,294,0.0,0.0,70,0.00,,,0.00,VWS V14.01,2013-11-19 04:37:00,
2013-11-18 23:42:00,38.2,29.3,30.20,WNW,288,0.0,2.0,70,0.00,,,0.00,VWS V14.01,2013-11-19 04:42:00,
2013-11-18 23:47:00,38.0,29.5,30.20,WNW,290,0.0,1.0,71,0.00,,,0.00,VWS V14.01,2013-11-19 04:47:00,
2013-11-18 23:52:00,37.6,29.4,30.20,WNW,290,0.0,0.0,72,0.00,,,0.00,VWS V14.01,2013-11-19 04:52:00,
2013-11-18 23:57:00,37.3,29.1,30.20,WNW,284,1.0,1.0,72,0.00,,,0.00,VWS V14.01,2013-11-19 04:57:00,